Time;durP1;ratioP1;P1;durP2;ratioP2;P2;SDS_P1;SDS_P2;PMS_P1;PMS_P2;Temp;Humidity;BMP_temperature;BMP_pressure;BME280_temperature;BME280_humidity;BME280_pressure;Samples;Min_cycle;Max_cycle;Signal;HPM_P1;HPM_P2
2023/08/30 00:02:42;;;;;;;1.15;1.05;;;;;;;;;;6208803;23;20195;-89
2023/08/30 00:05:51;;;;;;;2.03;1.25;;;;;;;;;;6174445;23;20273;-91
2023/08/30 00:08:57;;;;;;;0.95;0.82;;;;;;;;;;6190436;23;20193;-90
2023/08/30 00:12:03;;;;;;;1.35;0.73;;;;;;;;;;6190945;23;20314;-90
2023/08/30 00:15:09;;;;;;;1.10;0.82;;;;;;;;;;6190415;23;20187;-90
2023/08/30 00:18:15;;;;;;;0.88;0.88;;;;;;;;;;6191216;23;20204;-89
2023/08/30 00:21:23;;;;;;;0.70;0.65;;;;;;;;;;6191064;23;20172;-90
2023/08/30 00:24:29;;;;;;;0.38;0.38;;;;;;;;;;6190773;23;20212;-90
2023/08/30 00:27:35;;;;;;;0.88;0.88;;;;;;;;;;6191962;23;20208;-90
2023/08/30 00:30:41;;;;;;;0.70;0.68;;;;;;;;;;6190601;23;20156;-92
2023/08/30 00:33:47;;;;;;;1.58;1.38;;;;;;;;;;6191463;23;20198;-88
2023/08/30 00:36:55;;;;;;;0.50;0.50;;;;;;;;;;6191165;23;20168;-88
2023/08/30 00:40:00;;;;;;;1.40;1.15;;;;;;;;;;6190628;23;20508;-90
2023/08/30 00:43:06;;;;;;;1.63;1.02;;;;;;;;;;6191376;23;20225;-89
2023/08/30 00:46:13;;;;;;;0.43;0.43;;;;;;;;;;6192124;23;20193;-89
2023/08/30 00:49:18;;;;;;;1.98;1.20;;;;;;;;;;6191682;23;20172;-90
2023/08/30 00:52:26;;;;;;;6.90;1.00;;;;;;;;;;6191736;23;20212;-89
2023/08/30 00:55:32;;;;;;;3.03;1.63;;;;;;;;;;6190869;23;20188;-89
2023/08/30 00:58:38;;;;;;;0.65;0.50;;;;;;;;;;6191170;23;20175;-88
2023/08/30 01:01:45;;;;;;;0.50;0.50;;;;;;;;;;6190177;23;20188;-90
2023/08/30 01:04:51;;;;;;;0.73;0.73;;;;;;;;;;6190943;23;20150;-90
2023/08/30 01:08:13;;;;;;;0.65;0.65;;;;;;;;;;6190829;23;20156;-89
2023/08/30 01:11:25;;;;;;;0.52;0.52;;;;;;;;;;6191345;23;20195;-90
2023/08/30 01:14:37;;;;;;;0.50;0.50;;;;;;;;;;6191611;23;20188;-90
2023/08/30 01:17:44;;;;;;;0.70;0.70;;;;;;;;;;6190371;23;20172;-90
2023/08/30 01:23:50;;;;;;;0.60;0.60;;;;;;;;;;6263824;22;20198;-88
2023/08/30 01:27:11;;;;;;;1.42;0.70;;;;;;;;;;6252113;22;20162;-90
2023/08/30 01:30:17;;;;;;;2.03;0.82;;;;;;;;;;6252470;22;20151;-89
2023/08/30 01:33:24;;;;;;;0.30;0.30;;;;;;;;;;6252032;22;20205;-89
2023/08/30 01:36:31;;;;;;;1.30;0.85;;;;;;;;;;6248416;22;20202;-89
2023/08/30 01:39:36;;;;;;;0.85;0.85;;;;;;;;;;6240208;23;20338;-92
2023/08/30 01:42:44;;;;;;;0.50;0.50;;;;;;;;;;6238836;23;20245;-91
2023/08/30 01:45:51;;;;;;;1.10;1.05;;;;;;;;;;6240380;23;20241;-89
2023/08/30 01:49:00;;;;;;;0.73;0.73;;;;;;;;;;6253250;22;20174;-90
2023/08/30 01:52:08;;;;;;;0.65;0.40;;;;;;;;;;6252717;23;20150;-91
2023/08/30 01:55:16;;;;;;;0.68;0.65;;;;;;;;;;6252394;23;20174;-89
2023/08/30 01:58:23;;;;;;;1.45;1.10;;;;;;;;;;6253020;23;20242;-91
2023/08/30 02:01:33;;;;;;;0.52;0.52;;;;;;;;;;6253095;22;20146;-91
2023/08/30 02:04:53;;;;;;;0.93;0.90;;;;;;;;;;6253399;22;20167;-91
2023/08/30 02:08:05;;;;;;;0.63;0.63;;;;;;;;;;6252790;23;20170;-89
2023/08/30 02:11:16;;;;;;;0.45;0.45;;;;;;;;;;6253096;22;20502;-89
2023/08/30 02:14:30;;;;;;;1.08;0.98;;;;;;;;;;6252119;23;20182;-90
2023/08/30 02:17:37;;;;;;;0.60;0.60;;;;;;;;;;6242349;23;20173;-90
2023/08/30 02:20:42;;;;;;;0.43;0.43;;;;;;;;;;6240639;23;20221;-90
2023/08/30 02:23:50;;;;;;;1.27;1.17;;;;;;;;;;6227174;23;20175;-89
2023/08/30 02:26:55;;;;;;;0.30;0.30;;;;;;;;;;6226914;23;20175;-93
2023/08/30 02:30:02;;;;;;;1.02;0.93;;;;;;;;;;6226936;23;20147;-91
2023/08/30 02:33:08;;;;;;;0.82;0.70;;;;;;;;;;6226553;23;20611;-90
2023/08/30 02:36:13;;;;;;;0.50;0.50;;;;;;;;;;6227984;22;20218;-91
2023/08/30 02:39:19;;;;;;;0.30;0.30;;;;;;;;;;6228109;23;20163;-91
2023/08/30 02:42:25;;;;;;;0.50;0.50;;;;;;;;;;6227270;23;20224;-90
2023/08/30 02:45:34;;;;;;;0.47;0.47;;;;;;;;;;6227267;23;20159;-92
2023/08/30 02:48:39;;;;;;;0.82;0.82;;;;;;;;;;6227568;23;20167;-93
2023/08/30 02:51:46;;;;;;;0.60;0.60;;;;;;;;;;6227281;23;20151;-93
2023/08/30 02:54:51;;;;;;;0.82;0.73;;;;;;;;;;6227006;23;20195;-91
2023/08/30 02:57:56;;;;;;;0.70;0.70;;;;;;;;;;6228116;23;20167;-93
2023/08/30 03:01:03;;;;;;;0.55;0.55;;;;;;;;;;6226990;23;20634;-89
2023/08/30 03:04:08;;;;;;;0.50;0.50;;;;;;;;;;6227435;23;20224;-91
2023/08/30 03:07:13;;;;;;;0.60;0.52;;;;;;;;;;6228275;23;20163;-94
2023/08/30 03:10:19;;;;;;;0.50;0.50;;;;;;;;;;6226621;23;20167;-90
2023/08/30 03:13:24;;;;;;;0.68;0.68;;;;;;;;;;6227253;22;20171;-93
2023/08/30 03:16:30;;;;;;;0.85;0.85;;;;;;;;;;6225571;23;20167;-87
2023/08/30 03:19:35;;;;;;;0.77;0.52;;;;;;;;;;6227262;23;20194;-93
2023/08/30 03:26:27;;;;;;;0.73;0.60;;;;;;;;;;6211460;23;20183;-90
2023/08/30 03:29:33;;;;;;;1.38;0.82;;;;;;;;;;6210441;23;20167;-88
2023/08/30 03:32:39;;;;;;;0.50;0.50;;;;;;;;;;6210481;23;20187;-91
2023/08/30 03:35:44;;;;;;;1.33;0.98;;;;;;;;;;6216117;23;20303;-92
2023/08/30 03:38:49;;;;;;;1.00;0.98;;;;;;;;;;6210348;23;20167;-90
2023/08/30 03:41:54;;;;;;;0.40;0.40;;;;;;;;;;6210169;23;20167;-89
2023/08/30 03:45:02;;;;;;;0.85;0.80;;;;;;;;;;6209133;23;20210;-92
2023/08/30 03:48:09;;;;;;;0.60;0.60;;;;;;;;;;6209211;23;20191;-91
2023/08/30 03:51:15;;;;;;;1.55;0.68;;;;;;;;;;6208539;23;20589;-89
2023/08/30 03:54:20;;;;;;;1.27;0.85;;;;;;;;;;6207980;23;20635;-89
2023/08/30 03:57:25;;;;;;;2.70;0.82;;;;;;;;;;6209163;23;20171;-90
2023/08/30 04:00:30;;;;;;;0.50;0.50;;;;;;;;;;6208611;23;20175;-90
2023/08/30 04:03:37;;;;;;;1.20;0.93;;;;;;;;;;6209167;23;20159;-91
2023/08/30 04:06:41;;;;;;;0.50;0.50;;;;;;;;;;6207788;23;20215;-91
2023/08/30 04:09:47;;;;;;;0.45;0.45;;;;;;;;;;6208516;23;20151;-89
2023/08/30 04:12:52;;;;;;;1.10;0.88;;;;;;;;;;6208299;23;20228;-91
2023/08/30 04:15:58;;;;;;;4.75;1.08;;;;;;;;;;6209789;23;20159;-89
2023/08/30 04:19:05;;;;;;;0.60;0.60;;;;;;;;;;6208398;23;20167;-91
2023/08/30 04:22:10;;;;;;;23.90;2.42;;;;;;;;;;6209259;23;20305;-89
2023/08/30 04:25:15;;;;;;;0.45;0.45;;;;;;;;;;6207284;23;20171;-89
2023/08/30 04:28:19;;;;;;;0.85;0.70;;;;;;;;;;6208136;23;20611;-89
2023/08/30 04:31:24;;;;;;;1.13;1.00;;;;;;;;;;6208543;23;20174;-91
2023/08/30 04:34:32;;;;;;;1.83;1.00;;;;;;;;;;6205606;23;20238;-90
2023/08/30 04:37:37;;;;;;;1.92;1.30;;;;;;;;;;6209702;23;20186;-91
2023/08/30 04:40:44;;;;;;;0.40;0.40;;;;;;;;;;6214055;23;20167;-89
2023/08/30 04:43:52;;;;;;;1.48;1.38;;;;;;;;;;6211337;23;20411;-91
2023/08/30 04:46:57;;;;;;;0.93;0.93;;;;;;;;;;6211048;23;20254;-90
2023/08/30 04:50:08;;;;;;;2.20;1.35;;;;;;;;;;6211856;23;20171;-91
2023/08/30 04:53:14;;;;;;;1.05;1.05;;;;;;;;;;6210353;23;20147;-90
2023/08/30 04:56:19;;;;;;;0.73;0.73;;;;;;;;;;6211099;23;20175;-88
2023/08/30 04:59:24;;;;;;;0.95;0.95;;;;;;;;;;6211317;23;20183;-92
2023/08/30 05:02:29;;;;;;;0.70;0.70;;;;;;;;;;6211596;23;20167;-93
2023/08/30 05:05:48;;;;;;;1.23;0.90;;;;;;;;;;6211596;23;20175;-89
2023/08/30 05:08:55;;;;;;;9.27;1.00;;;;;;;;;;6210096;23;20191;-93
2023/08/30 05:12:00;;;;;;;1.35;1.25;;;;;;;;;;6209451;23;20170;-91
2023/08/30 05:15:05;;;;;;;0.70;0.70;;;;;;;;;;6209712;23;20190;-90
2023/08/30 05:18:15;;;;;;;2.03;1.10;;;;;;;;;;6209530;23;20170;-90
2023/08/30 05:21:22;;;;;;;0.43;0.43;;;;;;;;;;6209160;23;20170;-89
2023/08/30 05:24:28;;;;;;;1.00;0.93;;;;;;;;;;6210564;23;20191;-93
2023/08/30 05:27:34;;;;;;;1.33;1.23;;;;;;;;;;6208198;22;20618;-90
2023/08/30 05:30:41;;;;;;;1.27;1.17;;;;;;;;;;6212630;23;20167;-89
2023/08/30 05:33:56;;;;;;;0.57;0.57;;;;;;;;;;6187216;22;20377;-91
2023/08/30 05:37:41;;;;;;;1.58;1.02;;;;;;;;;;6077848;23;20171;-90
2023/08/30 05:41:00;;;;;;;1.00;0.95;;;;;;;;;;6090369;23;20175;-90
2023/08/30 05:44:05;;;;;;;1.92;1.35;;;;;;;;;;6199383;23;20196;-92
2023/08/30 05:47:14;;;;;;;1.85;1.25;;;;;;;;;;6199859;23;20167;-90
2023/08/30 05:50:20;;;;;;;0.47;0.47;;;;;;;;;;6201358;22;20147;-94
2023/08/30 05:53:26;;;;;;;4.97;2.05;;;;;;;;;;6181696;22;20172;-92
2023/08/30 05:56:33;;;;;;;2.22;0.60;;;;;;;;;;6181112;23;20171;-89
2023/08/30 05:59:38;;;;;;;1.17;1.00;;;;;;;;;;6179860;23;20168;-92
2023/08/30 06:02:44;;;;;;;1.10;1.02;;;;;;;;;;6197547;23;20176;-90
2023/08/30 06:05:49;;;;;;;0.90;0.60;;;;;;;;;;6179327;23;20262;-88
2023/08/30 06:08:56;;;;;;;2.33;1.75;;;;;;;;;;6182986;22;20168;-90
2023/08/30 06:12:01;;;;;;;0.85;0.85;;;;;;;;;;6181762;23;20192;-91
2023/08/30 06:15:07;;;;;;;1.23;1.13;;;;;;;;;;6199175;23;20191;-91
2023/08/30 06:18:11;;;;;;;0.60;0.60;;;;;;;;;;6179583;23;20164;-91
2023/08/30 06:21:16;;;;;;;0.82;0.82;;;;;;;;;;6196560;23;20159;-89
2023/08/30 06:24:23;;;;;;;1.45;0.93;;;;;;;;;;6183059;23;20247;-92
2023/08/30 06:27:28;;;;;;;1.40;1.15;;;;;;;;;;6183580;23;20231;-89
2023/08/30 06:30:33;;;;;;;0.82;0.82;;;;;;;;;;6198358;23;20211;-91
2023/08/30 06:33:39;;;;;;;2.50;1.00;;;;;;;;;;6180709;23;20163;-89
2023/08/30 06:36:44;;;;;;;0.52;0.52;;;;;;;;;;6199103;22;20171;-89
2023/08/30 06:39:51;;;;;;;0.40;0.40;;;;;;;;;;6180229;22;20271;-89
2023/08/30 06:42:56;;;;;;;3.15;1.38;;;;;;;;;;6178878;23;20163;-90
2023/08/30 06:46:02;;;;;;;1.20;1.10;;;;;;;;;;6181097;23;20184;-91
2023/08/30 06:49:09;;;;;;;1.48;0.93;;;;;;;;;;6198117;23;20242;-88
2023/08/30 06:52:14;;;;;;;2.58;0.88;;;;;;;;;;6179260;23;20263;-89
2023/08/30 06:55:21;;;;;;;0.57;0.57;;;;;;;;;;6180020;23;20200;-89
2023/08/30 06:58:26;;;;;;;0.60;0.60;;;;;;;;;;6183094;23;20168;-93
2023/08/30 07:01:31;;;;;;;1.30;1.20;;;;;;;;;;6181875;23;20243;-88
2023/08/30 07:04:36;;;;;;;0.80;0.80;;;;;;;;;;6200300;23;20168;-93
2023/08/30 07:07:42;;;;;;;1.55;1.10;;;;;;;;;;6180117;23;20239;-90
2023/08/30 07:10:49;;;;;;;0.80;0.80;;;;;;;;;;6179194;22;20616;-90
2023/08/30 07:13:54;;;;;;;0.90;0.82;;;;;;;;;;6182881;22;20172;-91
2023/08/30 07:17:00;;;;;;;0.80;0.75;;;;;;;;;;6198086;22;20179;-92
2023/08/30 07:20:08;;;;;;;0.50;0.50;;;;;;;;;;6180376;23;20333;-89
2023/08/30 07:23:13;;;;;;;0.43;0.43;;;;;;;;;;6198515;23;20295;-92
2023/08/30 07:26:20;;;;;;;0.50;0.50;;;;;;;;;;6198363;22;20228;-90
2023/08/30 07:29:25;;;;;;;0.68;0.68;;;;;;;;;;6181111;22;20191;-91
2023/08/30 07:32:30;;;;;;;0.88;0.88;;;;;;;;;;6198478;22;20168;-89
2023/08/30 07:35:35;;;;;;;5.90;1.17;;;;;;;;;;6197816;23;20640;-93
2023/08/30 07:38:41;;;;;;;0.93;0.60;;;;;;;;;;6184288;23;20225;-89
2023/08/30 07:41:48;;;;;;;0.60;0.60;;;;;;;;;;6178848;23;20164;-92
2023/08/30 07:44:53;;;;;;;0.45;0.45;;;;;;;;;;6198008;23;20159;-90
2023/08/30 07:47:58;;;;;;;0.40;0.40;;;;;;;;;;6179530;23;20498;-93
2023/08/30 07:51:03;;;;;;;1.25;0.98;;;;;;;;;;6182611;23;20171;-91
2023/08/30 07:54:09;;;;;;;0.40;0.40;;;;;;;;;;6180227;23;20163;-90
2023/08/30 07:57:15;;;;;;;0.45;0.45;;;;;;;;;;6179525;23;20823;-92
2023/08/30 08:00:20;;;;;;;0.30;0.30;;;;;;;;;;6176691;23;20175;-90
2023/08/30 08:03:27;;;;;;;1.08;0.85;;;;;;;;;;6196132;23;20164;-91
2023/08/30 08:06:32;;;;;;;0.50;0.50;;;;;;;;;;6195794;23;20184;-93
2023/08/30 08:09:38;;;;;;;0.45;0.45;;;;;;;;;;6180621;23;20172;-88
2023/08/30 08:12:45;;;;;;;0.45;0.45;;;;;;;;;;6181329;23;20243;-90
2023/08/30 08:15:50;;;;;;;0.28;0.28;;;;;;;;;;6178330;23;20296;-90
2023/08/30 08:18:58;;;;;;;0.57;0.57;;;;;;;;;;6178936;23;20167;-91
2023/08/30 08:22:03;;;;;;;0.52;0.45;;;;;;;;;;6179136;23;20230;-91
2023/08/30 08:25:09;;;;;;;0.30;0.30;;;;;;;;;;6177887;23;20187;-89
2023/08/30 08:28:17;;;;;;;0.77;0.35;;;;;;;;;;6176934;23;20184;-91
2023/08/30 08:31:22;;;;;;;0.43;0.43;;;;;;;;;;6178751;23;20180;-90
2023/08/30 08:34:28;;;;;;;0.90;0.90;;;;;;;;;;6195163;23;20187;-91
2023/08/30 08:37:34;;;;;;;0.40;0.40;;;;;;;;;;6180736;23;20217;-89
2023/08/30 08:40:39;;;;;;;0.30;0.30;;;;;;;;;;6180952;23;20163;-89
2023/08/30 08:43:46;;;;;;;0.55;0.55;;;;;;;;;;6177918;23;20163;-92
2023/08/30 08:46:52;;;;;;;0.47;0.47;;;;;;;;;;6175920;23;20360;-90
2023/08/30 08:49:57;;;;;;;0.38;0.38;;;;;;;;;;6176313;23;20152;-90
2023/08/30 08:53:03;;;;;;;0.65;0.65;;;;;;;;;;6175199;23;20172;-90
2023/08/30 08:56:09;;;;;;;0.30;0.30;;;;;;;;;;6175574;23;20532;-89
2023/08/30 08:59:15;;;;;;;0.50;0.50;;;;;;;;;;6177266;23;20245;-90
2023/08/30 09:02:20;;;;;;;0.65;0.65;;;;;;;;;;6176910;23;20168;-92
2023/08/30 09:05:25;;;;;;;4.45;2.58;;;;;;;;;;6177420;23;20580;-90
2023/08/30 09:08:30;;;;;;;6.35;2.97;;;;;;;;;;6179989;23;20187;-93
2023/08/30 09:11:35;;;;;;;4.28;2.80;;;;;;;;;;6179122;23;20196;-89
2023/08/30 09:14:41;;;;;;;3.33;2.63;;;;;;;;;;6176998;23;20187;-90
2023/08/30 09:17:46;;;;;;;3.88;2.28;;;;;;;;;;6178047;23;20501;-91
2023/08/30 09:20:51;;;;;;;3.95;2.70;;;;;;;;;;6177632;23;20168;-89
2023/08/30 09:24:01;;;;;;;5.22;2.40;;;;;;;;;;6177433;23;20184;-93
2023/08/30 09:27:06;;;;;;;4.22;2.80;;;;;;;;;;6196584;23;20504;-89
2023/08/30 09:30:13;;;;;;;4.93;2.72;;;;;;;;;;6181701;23;20172;-91
2023/08/30 09:33:22;;;;;;;4.40;2.40;;;;;;;;;;6177792;23;20227;-91
2023/08/30 09:36:27;;;;;;;3.42;2.42;;;;;;;;;;6175768;23;20520;-89
2023/08/30 09:39:33;;;;;;;5.10;2.10;;;;;;;;;;6181262;23;20225;-90
2023/08/30 09:42:42;;;;;;;5.22;2.15;;;;;;;;;;6177283;23;20211;-90
2023/08/30 09:45:49;;;;;;;2.17;1.80;;;;;;;;;;6177615;23;20355;-91
2023/08/30 09:48:55;;;;;;;5.93;2.33;;;;;;;;;;6177648;23;20243;-91
2023/08/30 09:52:01;;;;;;;5.60;1.90;;;;;;;;;;6175618;23;20164;-89
2023/08/30 09:55:07;;;;;;;4.10;1.90;;;;;;;;;;6179923;23;20214;-93
2023/08/30 09:58:12;;;;;;;4.57;2.08;;;;;;;;;;6179325;23;20176;-88
2023/08/30 10:01:17;;;;;;;3.42;1.83;;;;;;;;;;6179092;23;20692;-89
2023/08/30 10:04:22;;;;;;;4.53;2.47;;;;;;;;;;6182218;23;20184;-92
2023/08/30 10:07:28;;;;;;;6.28;1.85;;;;;;;;;;6178258;23;20176;-93
2023/08/30 10:10:33;;;;;;;4.93;2.33;;;;;;;;;;6176179;23;20171;-91
2023/08/30 10:13:40;;;;;;;3.65;2.15;;;;;;;;;;6177151;23;20155;-91
2023/08/30 10:16:48;;;;;;;2.55;1.73;;;;;;;;;;6177863;23;20216;-90
2023/08/30 10:19:54;;;;;;;2.65;1.95;;;;;;;;;;6178990;23;20168;-91
2023/08/30 10:22:59;;;;;;;4.20;1.75;;;;;;;;;;6178044;23;20168;-89
2023/08/30 10:26:05;;;;;;;1.67;1.48;;;;;;;;;;6178771;23;20236;-89
2023/08/30 10:29:12;;;;;;;2.60;1.60;;;;;;;;;;6176789;23;20160;-91
2023/08/30 10:32:22;;;;;;;4.00;1.85;;;;;;;;;;6180704;23;20151;-92
2023/08/30 10:35:27;;;;;;;4.18;1.60;;;;;;;;;;6182606;23;20639;-92
2023/08/30 10:38:38;;;;;;;3.00;1.90;;;;;;;;;;6178125;23;20268;-92
2023/08/30 10:41:56;;;;;;;3.60;1.70;;;;;;;;;;6179275;23;20503;-93
2023/08/30 10:45:04;;;;;;;4.90;1.55;;;;;;;;;;6178857;23;20172;-89
2023/08/30 10:48:10;;;;;;;2.13;1.65;;;;;;;;;;6179921;23;20184;-89
2023/08/30 10:51:22;;;;;;;5.47;1.90;;;;;;;;;;6179150;23;20598;-90
2023/08/30 10:54:40;;;;;;;2.33;1.73;;;;;;;;;;6177446;23;20168;-90
2023/08/30 10:57:47;;;;;;;4.60;2.25;;;;;;;;;;6180438;23;20516;-88
2023/08/30 11:00:54;;;;;;;4.25;1.88;;;;;;;;;;6182006;23;20247;-91
2023/08/30 11:07:21;;;;;;;3.05;1.60;;;;;;;;;;6182266;23;20164;-92
2023/08/30 11:10:26;;;;;;;4.25;1.60;;;;;;;;;;6180854;23;20155;-94
2023/08/30 11:13:31;;;;;;;4.63;1.90;;;;;;;;;;6182172;23;20176;-90
2023/08/30 11:16:36;;;;;;;4.00;1.65;;;;;;;;;;6182774;23;20195;-93
2023/08/30 11:19:43;;;;;;;4.55;1.55;;;;;;;;;;6182209;23;20168;-91
2023/08/30 11:22:49;;;;;;;5.88;1.85;;;;;;;;;;6182011;23;20176;-92
2023/08/30 11:25:54;;;;;;;3.55;1.58;;;;;;;;;;6180653;23;20174;-90
2023/08/30 11:28:59;;;;;;;2.33;1.45;;;;;;;;;;6180013;23;20168;-92
2023/08/30 11:32:05;;;;;;;3.20;1.60;;;;;;;;;;6182659;23;20155;-91
2023/08/30 11:35:23;;;;;;;5.05;1.80;;;;;;;;;;6182262;23;20187;-90
2023/08/30 11:38:29;;;;;;;4.30;1.50;;;;;;;;;;6164671;23;20288;-91
2023/08/30 11:41:34;;;;;;;2.28;1.65;;;;;;;;;;6182334;23;20168;-91
2023/08/30 11:44:40;;;;;;;3.95;1.98;;;;;;;;;;6178933;23;20168;-92
2023/08/30 11:47:45;;;;;;;2.15;1.55;;;;;;;;;;6183086;23;20179;-91
2023/08/30 11:50:52;;;;;;;5.45;2.17;;;;;;;;;;6182509;23;20180;-90
2023/08/30 11:53:58;;;;;;;2.75;1.65;;;;;;;;;;6199180;23;20172;-89
2023/08/30 11:57:03;;;;;;;4.65;1.90;;;;;;;;;;6180366;23;20528;-89
2023/08/30 12:00:09;;;;;;;7.10;1.65;;;;;;;;;;6179529;23;20619;-90
2023/08/30 12:03:17;;;;;;;2.63;1.38;;;;;;;;;;6184183;23;20172;-89
2023/08/30 12:06:25;;;;;;;4.45;1.60;;;;;;;;;;6183213;23;20167;-91
2023/08/30 12:09:33;;;;;;;4.13;1.35;;;;;;;;;;6183865;23;20168;-92
2023/08/30 12:12:38;;;;;;;1.67;1.25;;;;;;;;;;6183719;23;20171;-89
2023/08/30 12:15:44;;;;;;;3.17;1.27;;;;;;;;;;6182623;23;20303;-90
2023/08/30 12:18:49;;;;;;;3.20;1.40;;;;;;;;;;6185095;23;20147;-89
2023/08/30 12:21:55;;;;;;;1.90;1.30;;;;;;;;;;6184376;23;20224;-92
2023/08/30 12:25:08;;;;;;;2.15;1.20;;;;;;;;;;6183045;23;20171;-89
2023/08/30 12:28:15;;;;;;;2.90;1.63;;;;;;;;;;6182103;23;20261;-89
2023/08/30 12:31:20;;;;;;;2.75;1.27;;;;;;;;;;6182266;23;20168;-89
2023/08/30 12:34:25;;;;;;;3.60;1.60;;;;;;;;;;6183270;23;20179;-93
2023/08/30 12:37:32;;;;;;;6.38;1.52;;;;;;;;;;6182423;23;20526;-92
2023/08/30 12:40:38;;;;;;;3.47;1.42;;;;;;;;;;6180801;23;20164;-89
2023/08/30 12:43:43;;;;;;;2.17;1.55;;;;;;;;;;6182555;23;20168;-90
2023/08/30 12:46:48;;;;;;;3.17;1.60;;;;;;;;;;6182574;23;20201;-92
2023/08/30 12:49:53;;;;;;;4.00;2.40;;;;;;;;;;6183171;23;20172;-90
2023/08/30 12:52:59;;;;;;;4.05;1.85;;;;;;;;;;6182245;23;20164;-90
2023/08/30 12:56:05;;;;;;;2.40;1.50;;;;;;;;;;6179998;23;20148;-90
2023/08/30 12:59:13;;;;;;;3.03;1.60;;;;;;;;;;6182206;23;20171;-91
2023/08/30 13:02:18;;;;;;;2.78;1.83;;;;;;;;;;6183162;23;20328;-90
2023/08/30 13:05:23;;;;;;;3.17;2.17;;;;;;;;;;6181066;23;20171;-90
2023/08/30 13:08:31;;;;;;;4.05;2.15;;;;;;;;;;6181954;23;20262;-88
2023/08/30 13:11:36;;;;;;;3.17;1.80;;;;;;;;;;6182104;23;20175;-88
2023/08/30 13:14:42;;;;;;;2.72;2.20;;;;;;;;;;6183605;23;20164;-94
2023/08/30 13:17:47;;;;;;;4.00;2.20;;;;;;;;;;6183726;23;20207;-90
2023/08/30 13:20:56;;;;;;;5.38;2.05;;;;;;;;;;6181606;23;20168;-90
2023/08/30 13:24:03;;;;;;;6.90;2.05;;;;;;;;;;6180146;23;20159;-92
2023/08/30 13:27:08;;;;;;;5.93;2.20;;;;;;;;;;6197977;23;20220;-89
2023/08/30 13:30:14;;;;;;;6.88;2.13;;;;;;;;;;6180608;23;20167;-90
2023/08/30 13:33:19;;;;;;;4.13;2.30;;;;;;;;;;6182356;23;20630;-90
2023/08/30 13:36:25;;;;;;;3.75;1.77;;;;;;;;;;6182438;23;20194;-92
2023/08/30 13:39:31;;;;;;;3.83;2.40;;;;;;;;;;6180594;23;20171;-89
2023/08/30 13:42:37;;;;;;;4.93;2.28;;;;;;;;;;6180319;23;20166;-90
2023/08/30 13:45:46;;;;;;;7.68;3.42;;;;;;;;;;6180866;23;20167;-92
2023/08/30 13:48:52;;;;;;;4.32;2.30;;;;;;;;;;6178549;23;20171;-92
2023/08/30 13:51:57;;;;;;;7.18;2.45;;;;;;;;;;6175444;23;20211;-89
2023/08/30 13:55:03;;;;;;;3.35;2.33;;;;;;;;;;6181933;23;20216;-87
2023/08/30 13:58:09;;;;;;;4.32;2.17;;;;;;;;;;6180463;23;20179;-90
2023/08/30 14:01:14;;;;;;;2.92;2.00;;;;;;;;;;6181796;23;20233;-91
2023/08/30 14:07:38;;;;;;;3.58;2.30;;;;;;;;;;6209934;23;20227;-88
2023/08/30 14:10:45;;;;;;;3.70;2.30;;;;;;;;;;6210230;23;20242;-90
2023/08/30 14:13:50;;;;;;;5.05;2.35;;;;;;;;;;6210052;23;20273;-89
2023/08/30 14:16:55;;;;;;;5.38;2.22;;;;;;;;;;6211245;23;20267;-91
2023/08/30 14:20:01;;;;;;;5.43;1.98;;;;;;;;;;6209885;23;20172;-93
2023/08/30 14:23:06;;;;;;;4.65;2.35;;;;;;;;;;6210926;23;20151;-95
2023/08/30 14:26:15;;;;;;;3.92;2.10;;;;;;;;;;6209533;23;20611;-90
2023/08/30 14:29:21;;;;;;;4.47;2.20;;;;;;;;;;6212215;23;20215;-92
2023/08/30 14:32:26;;;;;;;3.00;1.92;;;;;;;;;;6212835;23;20154;-91
2023/08/30 14:35:31;;;;;;;4.10;1.98;;;;;;;;;;6216762;23;20175;-90
2023/08/30 14:38:37;;;;;;;5.15;2.38;;;;;;;;;;6212366;23;20183;-91
2023/08/30 14:41:44;;;;;;;6.15;3.00;;;;;;;;;;6213794;23;20171;-89
2023/08/30 14:44:50;;;;;;;5.70;2.40;;;;;;;;;;6213820;23;20259;-92
2023/08/30 14:47:56;;;;;;;3.17;2.50;;;;;;;;;;6213714;23;20294;-88
2023/08/30 14:51:02;;;;;;;4.43;2.63;;;;;;;;;;6216644;23;20403;-91
2023/08/30 14:54:11;;;;;;;7.85;2.80;;;;;;;;;;6189094;23;20219;-93
2023/08/30 14:57:17;;;;;;;2.92;2.60;;;;;;;;;;6185078;23;20199;-91
2023/08/30 15:00:22;;;;;;;5.93;3.03;;;;;;;;;;6183793;23;20649;-92
2023/08/30 15:03:27;;;;;;;3.25;2.60;;;;;;;;;;6182655;23;20167;-94
2023/08/30 15:06:33;;;;;;;5.53;2.67;;;;;;;;;;6186401;23;20159;-91
2023/08/30 15:09:39;;;;;;;6.93;3.15;;;;;;;;;;6187630;23;20213;-90
2023/08/30 15:12:46;;;;;;;8.60;3.88;;;;;;;;;;6184249;23;20509;-91
2023/08/30 15:15:51;;;;;;;4.00;2.97;;;;;;;;;;6184066;23;20160;-90
2023/08/30 15:18:56;;;;;;;7.13;3.50;;;;;;;;;;6186299;23;20243;-91
2023/08/30 15:22:01;;;;;;;6.00;3.28;;;;;;;;;;6184090;23;20216;-89
2023/08/30 15:25:09;;;;;;;6.68;3.10;;;;;;;;;;6181126;23;20267;-92
2023/08/30 15:28:17;;;;;;;5.00;2.90;;;;;;;;;;6182836;23;20148;-91
2023/08/30 15:31:22;;;;;;;4.60;3.20;;;;;;;;;;6181950;23;20159;-93
2023/08/30 15:34:27;;;;;;;4.03;2.85;;;;;;;;;;6182452;23;20208;-94
2023/08/30 15:37:32;;;;;;;5.57;3.63;;;;;;;;;;6182905;23;20487;-90
2023/08/30 15:40:38;;;;;;;2.80;2.50;;;;;;;;;;6180175;23;20211;-89
2023/08/30 15:43:45;;;;;;;5.57;2.95;;;;;;;;;;6183334;23;20151;-90
2023/08/30 15:46:50;;;;;;;3.25;2.63;;;;;;;;;;6182530;23;20221;-89
2023/08/30 15:49:56;;;;;;;7.63;3.80;;;;;;;;;;6182005;23;20287;-91
2023/08/30 15:53:01;;;;;;;3.55;2.70;;;;;;;;;;6180889;23;20190;-93
2023/08/30 15:56:06;;;;;;;6.25;3.13;;;;;;;;;;6181829;23;20246;-88
2023/08/30 15:59:13;;;;;;;16.60;3.50;;;;;;;;;;6183221;23;20188;-91
2023/08/30 16:02:18;;;;;;;4.15;2.60;;;;;;;;;;6181764;23;20210;-88
2023/08/30 16:05:23;;;;;;;7.90;2.88;;;;;;;;;;6199958;23;20223;-90
2023/08/30 16:08:28;;;;;;;6.55;3.00;;;;;;;;;;6182696;23;20204;-94
2023/08/30 16:11:34;;;;;;;6.80;3.20;;;;;;;;;;6181996;23;20172;-89
2023/08/30 16:14:40;;;;;;;3.88;2.90;;;;;;;;;;6182208;23;20172;-89
2023/08/30 16:17:46;;;;;;;4.82;3.42;;;;;;;;;;6183048;23;20257;-94
2023/08/30 16:20:55;;;;;;;5.45;3.30;;;;;;;;;;6181381;23;20241;-91
2023/08/30 16:24:00;;;;;;;3.72;3.00;;;;;;;;;;6183867;23;20172;-93
2023/08/30 16:27:07;;;;;;;3.97;2.95;;;;;;;;;;6181921;23;20211;-89
2023/08/30 16:30:15;;;;;;;4.43;3.15;;;;;;;;;;6182132;23;20168;-90
2023/08/30 16:33:20;;;;;;;4.75;3.10;;;;;;;;;;6181938;23;20627;-90
2023/08/30 16:36:26;;;;;;;6.13;3.22;;;;;;;;;;6184476;23;20216;-90
2023/08/30 16:39:31;;;;;;;3.92;3.15;;;;;;;;;;6183335;23;20224;-90
2023/08/30 16:42:36;;;;;;;6.72;4.07;;;;;;;;;;6183583;23;20220;-89
2023/08/30 16:45:43;;;;;;;6.80;3.55;;;;;;;;;;6183718;23;20693;-91
2023/08/30 16:48:48;;;;;;;4.63;2.97;;;;;;;;;;6182572;23;20168;-91
2023/08/30 16:51:54;;;;;;;3.83;2.75;;;;;;;;;;6200598;23;20168;-88
2023/08/30 16:54:59;;;;;;;3.58;2.83;;;;;;;;;;6182291;23;20493;-90
2023/08/30 16:58:05;;;;;;;8.20;3.17;;;;;;;;;;6185930;22;20196;-92
2023/08/30 17:01:12;;;;;;;7.53;3.10;;;;;;;;;;6181751;22;20211;-90
2023/08/30 17:04:17;;;;;;;10.27;3.38;;;;;;;;;;6182037;23;20172;-91
2023/08/30 17:07:22;;;;;;;8.02;3.55;;;;;;;;;;6180152;22;20227;-89
2023/08/30 17:10:27;;;;;;;9.07;3.40;;;;;;;;;;6182341;23;20163;-89
2023/08/30 17:13:32;;;;;;;6.68;3.17;;;;;;;;;;6181617;22;20168;-92
2023/08/30 17:16:47;;;;;;;9.95;3.20;;;;;;;;;;6181094;22;20489;-89
2023/08/30 17:19:52;;;;;;;5.82;3.38;;;;;;;;;;6181852;22;20168;-94
2023/08/30 17:22:57;;;;;;;13.60;4.03;;;;;;;;;;6182433;22;20223;-87
2023/08/30 17:26:03;;;;;;;5.40;3.55;;;;;;;;;;6181382;23;20167;-92
2023/08/30 17:29:09;;;;;;;7.15;3.58;;;;;;;;;;6181934;22;20386;-90
2023/08/30 17:32:20;;;;;;;7.00;3.50;;;;;;;;;;6184170;22;20467;-89
2023/08/30 17:35:25;;;;;;;5.70;3.47;;;;;;;;;;6182520;23;20234;-88
2023/08/30 17:38:31;;;;;;;7.68;3.85;;;;;;;;;;6180092;22;20235;-91
2023/08/30 17:41:37;;;;;;;5.53;2.90;;;;;;;;;;6181232;23;20197;-87
2023/08/30 17:44:43;;;;;;;9.13;3.97;;;;;;;;;;6183610;23;20160;-90
2023/08/30 17:47:50;;;;;;;11.02;4.03;;;;;;;;;;6183781;23;20171;-91
2023/08/30 17:50:55;;;;;;;7.90;3.70;;;;;;;;;;6181968;23;20176;-88
2023/08/30 17:54:00;;;;;;;11.98;5.25;;;;;;;;;;6204170;22;20238;-92
2023/08/30 17:57:05;;;;;;;13.52;6.72;;;;;;;;;;6211642;23;20270;-88
2023/08/30 18:00:13;;;;;;;11.40;4.55;;;;;;;;;;6212057;22;20154;-92
2023/08/30 18:03:20;;;;;;;9.27;4.90;;;;;;;;;;6230542;23;20163;-90
2023/08/30 18:06:26;;;;;;;8.00;4.78;;;;;;;;;;6212559;23;20505;-89
2023/08/30 18:09:31;;;;;;;13.85;6.30;;;;;;;;;;6213967;23;20155;-89
2023/08/30 18:12:37;;;;;;;8.73;4.95;;;;;;;;;;6213530;22;20167;-89
2023/08/30 18:15:42;;;;;;;7.05;3.88;;;;;;;;;;6212258;22;20166;-91
2023/08/30 18:18:49;;;;;;;9.93;4.13;;;;;;;;;;6214076;23;20198;-88
2023/08/30 18:21:54;;;;;;;7.10;4.70;;;;;;;;;;6212308;23;20662;-92
2023/08/30 18:24:59;;;;;;;8.93;4.90;;;;;;;;;;6213601;23;20151;-92
2023/08/30 18:28:05;;;;;;;6.35;4.18;;;;;;;;;;6215068;22;20231;-88
2023/08/30 18:31:10;;;;;;;6.30;4.63;;;;;;;;;;6213848;22;20171;-92
2023/08/30 18:34:20;;;;;;;11.77;5.03;;;;;;;;;;6215396;23;20168;-89
2023/08/30 18:37:25;;;;;;;8.68;4.88;;;;;;;;;;6214743;23;20170;-91
2023/08/30 18:40:30;;;;;;;10.85;4.90;;;;;;;;;;6216305;23;20214;-89
2023/08/30 18:43:41;;;;;;;11.25;5.25;;;;;;;;;;6216714;22;20151;-89
2023/08/30 18:46:51;;;;;;;13.07;6.05;;;;;;;;;;6215922;22;20610;-91
2023/08/30 18:49:57;;;;;;;8.52;5.38;;;;;;;;;;6214701;23;20179;-90
2023/08/30 18:53:04;;;;;;;15.13;4.75;;;;;;;;;;6203822;23;20191;-91